Gilbertown, AL (36908)

4:36 PM CDT on August 30, 2015 (GMT -0500)
KALBUTLE3 | | Change Station
CLOSE
Current Station
Personal Weather Station
Location: Butler, AL
Elevation: 183 ft
Nearby Weather Stations

Elev 183 ft 32.10 °N, 88.20 °W | Updated 6 minutes ago

Mostly Cloudy
Mostly Cloudy
86.2 °F
Feels Like 93 °F
N
2.5
Wind Variable Wind from SE
Gusts 2.5 mph

Today
High -- | Low -- °F
--% Chance of Precip.
Yesterday
High -- | Low -- °F
Precip. -- in
6:27 AM 7:20 PM
Full, 98% visible
Pressure 30.01 in
Visibility 10.0 miles
Clouds Overcast 10000 ft
Heat Index 93 °F
Dew Point 73 °F
Humidity 64%
Rainfall 0.00 in
Snow Depth Not available.
UV 1 out of 12
Pollen 8.70 out of 12
Air Quality Not available.
Flu Activity Not available.
SPECI KMEI 302128Z 03004KT 10SM -RA OVC100 27/21 A3001 RMK AO2 TSE22 P0003 T02720211
Pressure 30.01 in
Visibility 10.0 miles
Clouds Overcast 10000 ft
Heat Index 93 °F
Dew Point 73 °F
Humidity 64%
Rainfall 0.00 in
Snow Depth Not available.
UV 1 out of 12
Pollen 8.70 out of 12
Air Quality Not available.
Flu Activity Not available.
SPECI KMEI 302128Z 03004KT 10SM -RA OVC100 27/21 A3001 RMK AO2 TSE22 P0003 T02720211

10-Day Weather Forecast

×

Almanac

Astronomy

Aug. 30, 2015 Rise Set
Actual Time
Civil Twilight
Nautical Twilight
Astronomical Twilight
Moon
Length of Visible Light
Length of Day
Tomorrow will be .
, % of the Moon is Illuminated

Today's Extremes

State Highs State Lows

Community

WunderPhotos

Upload Photos

1,851,063 photos uploaded!

WunderBlogs® & News

Nearby

Air Quality

  Air Quality AQ Index Pollutant
Not available.

Snow Depth

Station Depth Elevation

Earthquake Activity

City Distance Mag. Time & Date
Minimum magnitude displayed is 2.5.

Coastal Water Temperatures

Place Temperature

Stations

Nearby Weather Stations

Station Location Temp. Windchill Dew Point Humidity Wind Precip. Elev Updated Type